createdAt,value
2023-02-07T00:01:52.246Z,13.00
2023-02-07T00:04:19.194Z,10.63
2023-02-07T00:06:50.777Z,9.48
2023-02-07T00:09:22.945Z,8.13
2023-02-07T00:11:52.057Z,11.07
2023-02-07T00:14:21.532Z,8.73
2023-02-07T00:16:48.547Z,11.23
2023-02-07T00:19:20.133Z,9.93
2023-02-07T00:21:51.513Z,11.93
2023-02-07T00:24:18.428Z,13.15
2023-02-07T00:26:47.333Z,13.82
2023-02-07T00:29:16.497Z,12.88
2023-02-07T00:31:44.910Z,11.02
2023-02-07T00:34:16.686Z,10.50
2023-02-07T00:36:43.731Z,12.00
2023-02-07T00:39:14.516Z,11.40
2023-02-07T00:41:47.282Z,7.93
2023-02-07T00:44:14.259Z,10.05
2023-02-07T00:46:43.524Z,11.50
2023-02-07T00:49:13.081Z,12.98
2023-02-07T00:51:45.146Z,14.23
2023-02-07T00:54:13.446Z,8.70
2023-02-07T00:56:42.541Z,10.77
2023-02-07T00:59:12.456Z,9.30
2023-02-07T01:01:39.580Z,12.85
2023-02-07T01:04:08.713Z,6.55
2023-02-07T01:06:42.845Z,9.27
2023-02-07T01:09:10.392Z,12.27
2023-02-07T01:11:37.415Z,11.63
2023-02-07T01:14:04.364Z,11.98
2023-02-07T01:16:35.669Z,8.50
2023-02-07T01:19:07.908Z,9.07
2023-02-07T01:21:39.494Z,12.25
2023-02-07T01:24:09.494Z,11.18
2023-02-07T01:26:37.176Z,8.57
2023-02-07T01:29:04.330Z,10.98
2023-02-07T01:31:31.609Z,14.85
2023-02-07T01:33:59.958Z,8.43
2023-02-07T01:36:29.980Z,9.68
2023-02-07T01:38:59.259Z,9.57
2023-02-07T01:41:26.869Z,11.90
2023-02-07T01:44:07.470Z,9.55
2023-02-07T01:46:37.062Z,11.07
2023-02-07T01:49:08.700Z,10.90
2023-02-07T01:51:38.316Z,10.80
2023-02-07T01:54:09.177Z,12.93
2023-02-07T01:56:36.222Z,14.55
2023-02-07T01:59:03.511Z,9.23
2023-02-07T02:01:33.026Z,8.18
2023-02-07T02:04:00.101Z,12.63
2023-02-07T02:06:33.492Z,10.07
2023-02-07T02:09:01.659Z,12.18
2023-02-07T02:12:19.028Z,7.60
2023-02-07T02:14:58.205Z,12.93
2023-02-07T02:17:54.848Z,11.07
2023-02-07T02:20:49.533Z,11.98
2023-02-07T02:23:39.066Z,7.47
2023-02-07T02:26:30.940Z,7.38
2023-02-07T02:29:37.734Z,11.93
2023-02-07T02:32:24.038Z,14.13
2023-02-07T02:35:20.246Z,11.85
2023-02-07T02:38:14.357Z,9.10
2023-02-07T02:40:55.546Z,8.15
2023-02-07T02:43:46.731Z,15.18
2023-02-07T02:46:28.766Z,11.40
2023-02-07T02:48:58.911Z,8.70
2023-02-07T02:51:31.113Z,11.93
2023-02-07T02:54:00.989Z,13.23
2023-02-07T02:56:56.040Z,12.32
2023-02-07T02:59:53.441Z,18.77
2023-02-07T03:02:47.500Z,23.83
2023-02-07T03:05:29.446Z,27.25
2023-02-07T03:08:20.056Z,15.52
2023-02-07T03:10:55.910Z,14.00
2023-02-07T03:13:35.901Z,13.25
2023-02-07T03:16:27.737Z,10.88
2023-02-07T03:19:04.326Z,11.88
2023-02-07T03:21:33.052Z,13.48
2023-02-07T03:24:07.307Z,8.65
2023-02-07T03:26:38.291Z,10.57
2023-02-07T03:29:08.195Z,10.98
2023-02-07T03:31:35.227Z,8.23
2023-02-07T03:34:11.230Z,10.77
2023-02-07T03:37:19.756Z,10.13
2023-02-07T03:39:49.239Z,9.43
2023-02-07T03:42:32.486Z,11.90
2023-02-07T03:45:01.668Z,15.43
2023-02-07T03:47:31.658Z,12.27
2023-02-07T03:50:03.099Z,11.35
2023-02-07T03:52:33.094Z,13.65
2023-02-07T03:55:00.020Z,11.27
2023-02-07T03:57:30.670Z,10.98
2023-02-07T03:59:59.931Z,11.00
2023-02-07T04:02:26.977Z,15.20
2023-02-07T04:04:55.157Z,12.70
2023-02-07T04:07:24.580Z,16.90
2023-02-07T04:09:51.569Z,8.30
2023-02-07T04:12:20.668Z,10.05
2023-02-07T04:14:49.936Z,14.68
2023-02-07T04:17:19.204Z,11.60
2023-02-07T04:19:50.490Z,13.73
2023-02-07T04:22:17.446Z,12.85
2023-02-07T04:24:44.406Z,10.48
2023-02-07T04:27:13.961Z,8.15
2023-02-07T04:29:43.132Z,8.05
2023-02-07T04:32:10.157Z,9.65
2023-02-07T04:34:39.243Z,7.47
2023-02-07T04:37:06.176Z,9.85
2023-02-07T04:39:35.647Z,11.45
2023-02-07T04:42:07.728Z,8.45
2023-02-07T04:44:34.875Z,8.73
2023-02-07T04:47:01.841Z,9.45
2023-02-07T04:49:34.632Z,7.22
2023-02-07T04:52:01.982Z,7.80
2023-02-07T04:54:33.857Z,14.93
2023-02-07T04:57:03.089Z,8.07
2023-02-07T04:59:35.500Z,16.35
2023-02-07T05:02:07.216Z,12.00
2023-02-07T05:04:38.901Z,9.48
2023-02-07T05:07:12.978Z,8.23
2023-02-07T05:09:42.296Z,10.93
2023-02-07T05:12:11.688Z,9.40
2023-02-07T05:14:38.644Z,8.00
2023-02-07T05:17:08.195Z,7.03
2023-02-07T05:19:38.224Z,13.65
2023-02-07T05:22:12.959Z,11.63
2023-02-07T05:24:45.185Z,14.70
2023-02-07T05:27:12.323Z,10.32
2023-02-07T05:29:41.337Z,10.75
2023-02-07T05:32:27.604Z,9.18
2023-02-07T05:34:54.701Z,9.38
2023-02-07T05:37:23.721Z,10.57
2023-02-07T05:39:53.077Z,12.52
2023-02-07T05:42:22.200Z,10.57
2023-02-07T05:44:49.121Z,8.98
2023-02-07T05:47:20.715Z,9.80
2023-02-07T05:49:47.821Z,6.35
2023-02-07T05:52:14.779Z,9.27
2023-02-07T05:54:44.268Z,9.60
2023-02-07T05:57:11.222Z,9.40
2023-02-07T05:59:40.338Z,8.02
2023-02-07T06:02:12.620Z,10.32
2023-02-07T06:04:41.802Z,9.02
2023-02-07T06:07:08.767Z,9.93
2023-02-07T06:09:35.710Z,10.43
2023-02-07T06:12:04.952Z,8.00
2023-02-07T06:14:34.360Z,6.18
2023-02-07T06:17:03.841Z,10.00
2023-02-07T06:19:30.778Z,11.10
2023-02-07T06:21:58.572Z,10.02
2023-02-07T06:24:25.580Z,10.80
2023-02-07T06:26:56.992Z,13.02
2023-02-07T06:29:23.918Z,11.70
2023-02-07T06:31:53.098Z,11.82
2023-02-07T06:34:20.150Z,7.88
2023-02-07T06:36:51.975Z,11.38
2023-02-07T06:39:18.954Z,11.18
2023-02-07T06:41:48.260Z,12.45
2023-02-07T06:44:15.208Z,9.25
2023-02-07T06:46:42.136Z,14.23
2023-02-07T06:49:09.125Z,7.95
2023-02-07T06:51:38.308Z,9.75
2023-02-07T06:54:10.021Z,14.40
2023-02-07T06:56:40.405Z,13.00
2023-02-07T06:59:07.555Z,13.18
2023-02-07T07:01:34.553Z,9.43
2023-02-07T07:04:03.753Z,15.10
2023-02-07T07:06:35.070Z,12.30
2023-02-07T07:09:04.245Z,11.95
2023-02-07T07:11:33.323Z,16.73
2023-02-07T07:14:04.778Z,10.90
2023-02-07T07:16:32.444Z,14.30
2023-02-07T07:18:59.446Z,16.95
2023-02-07T07:21:27.717Z,17.42
2023-02-07T07:23:56.928Z,10.68
2023-02-07T07:26:23.865Z,11.02
2023-02-07T07:29:00.155Z,13.55
2023-02-07T07:31:29.662Z,10.52
2023-02-07T07:34:01.573Z,12.40
2023-02-07T07:36:35.908Z,15.15
2023-02-07T07:39:03.090Z,14.73
2023-02-07T07:41:32.485Z,15.05
2023-02-07T07:43:59.469Z,16.08
2023-02-07T07:46:31.182Z,14.05
2023-02-07T07:48:58.131Z,14.07
2023-02-07T07:51:27.444Z,15.57
2023-02-07T07:53:54.486Z,14.57
2023-02-07T07:56:21.449Z,13.15
2023-02-07T07:58:50.122Z,20.05
2023-02-07T08:01:19.567Z,17.77
2023-02-07T08:03:46.728Z,17.23
2023-02-07T08:06:16.105Z,13.95
2023-02-07T08:08:47.690Z,12.45
2023-02-07T08:11:14.720Z,18.70
2023-02-07T08:13:46.423Z,17.73
2023-02-07T08:16:16.141Z,16.85
2023-02-07T08:18:47.370Z,20.20
2023-02-07T08:21:14.292Z,16.08
2023-02-07T08:23:43.494Z,21.27
2023-02-07T08:26:12.660Z,21.40
2023-02-07T08:28:43.917Z,20.42
2023-02-07T08:31:13.434Z,21.58
2023-02-07T08:33:42.826Z,20.23
2023-02-07T08:36:11.221Z,22.95
2023-02-07T08:38:40.661Z,25.27
2023-02-07T08:41:07.652Z,19.85
2023-02-07T08:43:38.146Z,23.73
2023-02-07T08:46:09.951Z,19.23
2023-02-07T08:48:36.958Z,21.95
2023-02-07T08:51:07.647Z,24.20
2023-02-07T08:53:34.631Z,20.40
2023-02-07T08:56:01.667Z,18.38
2023-02-07T08:58:31.578Z,23.00
2023-02-07T09:00:58.549Z,20.13
2023-02-07T09:03:28.389Z,25.30
2023-02-07T09:05:59.956Z,21.60
2023-02-07T09:08:34.155Z,18.92
2023-02-07T09:11:01.154Z,23.77
2023-02-07T09:13:34.934Z,27.20
2023-02-07T09:16:01.872Z,19.77
2023-02-07T09:18:30.165Z,15.35
2023-02-07T09:20:59.218Z,17.73
2023-02-07T09:23:29.175Z,17.35
2023-02-07T09:25:56.174Z,19.80
2023-02-07T09:28:27.773Z,19.50
2023-02-07T09:30:55.018Z,18.98
2023-02-07T09:33:25.292Z,24.05
2023-02-07T09:35:52.347Z,21.20
2023-02-07T09:38:21.778Z,20.02
2023-02-07T09:40:54.082Z,24.75
2023-02-07T09:43:26.965Z,29.15
2023-02-07T09:45:57.596Z,35.28
2023-02-07T09:48:41.129Z,34.75
2023-02-07T09:51:09.062Z,26.65
2023-02-07T09:53:44.029Z,31.52
2023-02-07T09:56:15.900Z,36.65
2023-02-07T09:58:53.751Z,35.28
2023-02-07T10:01:25.288Z,31.73
2023-02-07T10:04:07.653Z,31.63
2023-02-07T10:06:36.890Z,27.02
2023-02-07T10:09:05.928Z,37.97
2023-02-07T10:11:54.889Z,32.28
2023-02-07T10:14:40.006Z,33.95
2023-02-07T10:17:37.198Z,33.40
2023-02-07T10:20:07.224Z,31.15
2023-02-07T10:22:41.640Z,34.33
2023-02-07T10:25:20.337Z,36.50
2023-02-07T10:28:29.202Z,31.50
2023-02-07T10:30:58.655Z,31.55
2023-02-07T10:33:30.771Z,35.50
2023-02-07T10:36:03.934Z,37.08
2023-02-07T10:39:07.739Z,29.20
2023-02-07T10:41:40.089Z,27.65
2023-02-07T10:44:10.242Z,31.02
2023-02-07T10:46:40.794Z,34.85
2023-02-07T10:49:24.872Z,38.83
2023-02-07T10:52:05.242Z,38.47
2023-02-07T10:54:35.157Z,30.05
2023-02-07T10:57:02.948Z,38.45
2023-02-07T10:59:49.111Z,35.92
2023-02-07T11:02:31.844Z,30.02
2023-02-07T11:05:06.529Z,29.95
2023-02-07T11:07:46.185Z,31.30
2023-02-07T11:10:18.857Z,29.70
2023-02-07T11:12:50.779Z,26.83
2023-02-07T11:15:20.431Z,30.60
2023-02-07T11:17:51.348Z,31.65
2023-02-07T11:20:30.548Z,25.35
2023-02-07T11:25:30.720Z,16.20
2023-02-07T11:28:00.891Z,12.45
2023-02-07T11:30:29.014Z,12.80
2023-02-07T11:33:01.118Z,14.93
2023-02-07T11:35:33.176Z,14.25
2023-02-07T11:38:07.242Z,14.32
2023-02-07T11:40:38.117Z,11.85
2023-02-07T11:43:18.422Z,12.65
2023-02-07T11:45:51.832Z,16.23
2023-02-07T11:48:21.955Z,10.02
2023-02-07T11:50:52.559Z,12.07
2023-02-07T11:53:38.300Z,12.68
2023-02-07T11:56:08.851Z,16.60
2023-02-07T11:58:37.898Z,14.63
2023-02-07T12:01:06.257Z,18.38
2023-02-07T12:03:42.756Z,17.17
2023-02-07T12:06:13.515Z,14.43
2023-02-07T12:08:43.055Z,14.68
2023-02-07T12:11:19.704Z,13.30
2023-02-07T12:13:55.372Z,12.70
2023-02-07T12:16:33.054Z,11.98
2023-02-07T12:19:05.748Z,13.18
2023-02-07T12:21:47.340Z,18.75
2023-02-07T12:24:20.278Z,14.85
2023-02-07T12:26:54.616Z,15.75
2023-02-07T12:29:27.838Z,15.10
2023-02-07T12:31:58.094Z,15.68
2023-02-07T12:34:38.640Z,12.70
2023-02-07T12:37:26.563Z,14.27
2023-02-07T12:40:00.187Z,18.35
2023-02-07T12:42:37.947Z,14.30
2023-02-07T12:45:09.480Z,15.77
2023-02-07T12:47:50.541Z,40.53
2023-02-07T12:50:26.465Z,34.65
2023-02-07T12:53:10.608Z,11.57
2023-02-07T12:56:02.675Z,14.80
2023-02-07T12:58:40.653Z,21.08
2023-02-07T13:01:42.529Z,12.02
2023-02-07T13:04:38.508Z,14.48
2023-02-07T13:07:29.376Z,15.38
2023-02-07T13:10:14.842Z,17.58
2023-02-07T13:15:33.512Z,14.20
2023-02-07T13:18:18.786Z,17.38
2023-02-07T13:21:04.213Z,19.02
2023-02-07T13:26:11.573Z,16.10
2023-02-07T13:28:49.579Z,17.27
2023-02-07T13:31:22.723Z,14.32
2023-02-07T13:33:54.299Z,15.20
2023-02-07T13:36:46.838Z,17.73
2023-02-07T13:39:28.871Z,18.45
2023-02-07T13:42:20.164Z,13.10
2023-02-07T13:44:47.054Z,12.48
2023-02-07T13:47:35.304Z,16.73
2023-02-07T13:50:32.926Z,11.48
2023-02-07T13:53:31.109Z,10.52
2023-02-07T13:56:08.265Z,10.05
2023-02-07T13:58:53.817Z,15.88
2023-02-07T14:01:32.481Z,11.88
2023-02-07T14:04:06.966Z,13.35
2023-02-07T14:06:37.994Z,12.93
2023-02-07T14:09:22.576Z,11.32
2023-02-07T14:11:59.420Z,14.40
2023-02-07T14:14:27.252Z,11.65
2023-02-07T14:17:00.139Z,16.85
2023-02-07T14:19:47.515Z,12.45
2023-02-07T14:22:22.528Z,17.13
2023-02-07T14:25:00.274Z,17.42
2023-02-07T14:27:31.290Z,14.88
2023-02-07T14:30:13.535Z,15.15
2023-02-07T14:33:05.075Z,18.75
2023-02-07T14:35:36.436Z,16.55
2023-02-07T14:38:05.739Z,15.18
2023-02-07T14:40:44.892Z,15.85
2023-02-07T14:43:11.846Z,16.10
2023-02-07T14:45:51.064Z,16.50
2023-02-07T14:48:42.288Z,17.42
2023-02-07T14:51:21.101Z,18.23
2023-02-07T14:54:02.161Z,16.90
2023-02-07T14:56:38.631Z,18.88
2023-02-07T14:59:05.697Z,14.73
2023-02-07T15:01:34.779Z,17.20
2023-02-07T15:04:08.272Z,14.75
2023-02-07T15:06:40.889Z,18.02
2023-02-07T15:09:19.631Z,16.23
2023-02-07T15:11:51.468Z,14.75
2023-02-07T15:14:32.534Z,15.27
2023-02-07T15:17:01.982Z,16.42
2023-02-07T15:19:36.894Z,18.23
2023-02-07T15:22:08.019Z,15.60
2023-02-07T15:24:51.382Z,17.83
2023-02-07T15:27:28.522Z,13.48
2023-02-07T15:30:01.526Z,23.10
2023-02-07T15:34:59.606Z,17.77
2023-02-07T15:37:27.758Z,14.35
2023-02-07T15:40:00.575Z,18.08
2023-02-07T15:42:32.256Z,14.80
2023-02-07T15:45:01.758Z,15.90
2023-02-07T15:47:28.942Z,16.38
2023-02-07T15:50:00.318Z,16.10
2023-02-07T15:52:41.552Z,12.25
2023-02-07T15:57:54.163Z,14.05
2023-02-07T16:00:29.088Z,12.90
2023-02-07T16:03:00.598Z,12.32
2023-02-07T16:05:34.582Z,13.23
2023-02-07T16:08:28.151Z,16.73
2023-02-07T16:10:57.177Z,15.15
2023-02-07T16:13:24.117Z,16.35
2023-02-07T16:15:58.820Z,12.95
2023-02-07T16:18:37.431Z,13.57
2023-02-07T16:21:10.821Z,13.48
2023-02-07T16:23:39.834Z,13.88
2023-02-07T16:26:06.767Z,14.05
2023-02-07T16:28:36.234Z,16.50
2023-02-07T16:31:06.158Z,15.38
2023-02-07T16:33:33.181Z,13.75
2023-02-07T16:36:02.466Z,11.43
2023-02-07T16:38:32.277Z,16.23
2023-02-07T16:41:02.282Z,10.63
2023-02-07T16:43:40.103Z,10.23
2023-02-07T16:46:07.083Z,13.77
2023-02-07T16:48:36.190Z,14.50
2023-02-07T16:51:03.248Z,17.92
2023-02-07T16:53:34.782Z,15.77
2023-02-07T16:56:01.704Z,16.05
2023-02-07T16:58:30.409Z,14.07
2023-02-07T17:01:00.392Z,14.68
2023-02-07T17:03:31.914Z,19.23
2023-02-07T17:06:01.474Z,15.25
2023-02-07T17:08:30.233Z,15.73
2023-02-07T17:10:59.894Z,24.08
2023-02-07T17:13:28.991Z,13.93
2023-02-07T17:15:58.144Z,19.45
2023-02-07T17:18:27.762Z,18.35
2023-02-07T17:20:57.817Z,19.88
2023-02-07T17:23:25.382Z,21.80
2023-02-07T17:25:52.445Z,22.55
2023-02-07T17:28:22.594Z,19.85
2023-02-07T17:30:50.629Z,16.65
2023-02-07T17:33:20.124Z,17.17
2023-02-07T17:35:49.434Z,24.55
2023-02-07T17:38:23.626Z,19.88
2023-02-07T17:40:53.191Z,19.73
2023-02-07T17:43:22.649Z,19.83
2023-02-07T17:45:49.647Z,19.52
2023-02-07T17:48:19.127Z,20.42
2023-02-07T17:50:50.697Z,19.92
2023-02-07T17:53:21.598Z,17.73
2023-02-07T17:55:49.301Z,20.73
2023-02-07T17:58:17.404Z,14.73
2023-02-07T18:00:44.404Z,22.95
2023-02-07T18:03:11.349Z,30.38
2023-02-07T18:05:40.396Z,24.70
2023-02-07T18:08:13.723Z,25.48
2023-02-07T18:10:41.102Z,22.83
2023-02-07T18:13:10.776Z,22.80
2023-02-07T18:15:37.737Z,24.77
2023-02-07T18:18:07.225Z,22.13
2023-02-07T18:20:39.531Z,27.92
2023-02-07T18:23:11.481Z,24.48
2023-02-07T18:25:40.655Z,23.60
2023-02-07T18:28:09.901Z,24.42
2023-02-07T18:30:39.456Z,22.13
2023-02-07T18:33:09.122Z,25.00
2023-02-07T18:35:36.194Z,19.35
2023-02-07T18:38:06.268Z,22.95
2023-02-07T18:40:33.225Z,23.02
2023-02-07T18:43:02.368Z,23.60
2023-02-07T18:45:29.354Z,18.23
2023-02-07T18:47:58.785Z,21.10
2023-02-07T18:50:25.908Z,18.40
2023-02-07T18:52:57.620Z,24.85
2023-02-07T18:55:27.586Z,18.85
2023-02-07T18:57:57.775Z,18.45
2023-02-07T19:00:26.972Z,19.10
2023-02-07T19:02:56.360Z,24.48
2023-02-07T19:05:23.405Z,20.00
2023-02-07T19:07:50.369Z,27.50
2023-02-07T19:10:19.716Z,32.90
2023-02-07T19:12:46.711Z,26.50
2023-02-07T19:15:16.209Z,26.98
2023-02-07T19:17:45.420Z,23.70
2023-02-07T19:20:12.467Z,24.05
2023-02-07T19:22:45.120Z,21.67
2023-02-07T19:25:16.693Z,27.50
2023-02-07T19:27:45.723Z,25.73
2023-02-07T19:30:15.346Z,26.73
2023-02-07T19:32:47.223Z,21.98
2023-02-07T19:35:14.139Z,25.40
2023-02-07T19:37:44.122Z,33.40
2023-02-07T19:40:11.406Z,43.08
2023-02-07T19:42:43.095Z,39.67
2023-02-07T19:45:10.164Z,41.75
2023-02-07T19:47:37.113Z,35.47
2023-02-07T19:50:07.611Z,36.47
2023-02-07T19:52:34.623Z,29.35
2023-02-07T19:55:05.124Z,33.70
2023-02-07T19:57:35.192Z,31.58
2023-02-07T20:00:07.739Z,27.42
2023-02-07T20:02:36.970Z,30.70
2023-02-07T20:05:06.495Z,28.13
2023-02-07T20:07:38.221Z,33.42
2023-02-07T20:10:10.426Z,29.25
2023-02-07T20:12:39.785Z,23.58
2023-02-07T20:15:07.049Z,23.05
2023-02-07T20:17:35.540Z,30.70
2023-02-07T20:20:08.224Z,30.63
2023-02-07T20:22:35.405Z,32.17
2023-02-07T20:25:04.829Z,24.90
2023-02-07T20:27:33.950Z,29.73
2023-02-07T20:30:00.886Z,24.00
2023-02-07T20:32:32.553Z,27.73
2023-02-07T20:34:59.576Z,23.60
2023-02-07T20:37:32.091Z,27.88
2023-02-07T20:40:01.499Z,26.65
2023-02-07T20:42:30.594Z,25.45
2023-02-07T20:44:59.718Z,38.08
2023-02-07T20:47:31.540Z,26.08
2023-02-07T20:50:01.015Z,23.02
2023-02-07T20:52:33.539Z,26.35
2023-02-07T20:55:00.482Z,26.92
2023-02-07T20:57:32.158Z,26.50
2023-02-07T20:59:59.161Z,23.13
2023-02-07T21:02:30.924Z,34.20
2023-02-07T21:05:02.514Z,26.67
2023-02-07T21:07:29.477Z,26.50
2023-02-07T21:09:59.470Z,27.63
2023-02-07T21:12:28.534Z,24.67
2023-02-07T21:14:57.380Z,24.88
2023-02-07T21:17:24.378Z,23.25
2023-02-07T21:19:53.411Z,20.48
2023-02-07T21:22:23.065Z,27.23
2023-02-07T21:24:50.216Z,23.52
2023-02-07T21:27:21.835Z,24.08
2023-02-07T21:29:50.994Z,20.88
2023-02-07T21:32:20.281Z,27.77
2023-02-07T21:34:52.746Z,26.98
2023-02-07T21:37:24.632Z,29.20
2023-02-07T21:39:51.634Z,26.95
2023-02-07T21:42:20.824Z,26.50
2023-02-07T21:44:48.172Z,25.00
2023-02-07T21:47:17.392Z,30.83
2023-02-07T21:49:46.570Z,26.92
2023-02-07T21:52:13.608Z,30.00
2023-02-07T21:54:40.567Z,29.90
2023-02-07T21:57:09.756Z,29.10
2023-02-07T21:59:38.849Z,27.83
2023-02-07T22:02:05.851Z,27.73
2023-02-07T22:04:35.301Z,32.10
2023-02-07T22:07:02.275Z,20.27
2023-02-07T22:09:34.168Z,33.47
2023-02-07T22:12:16.552Z,25.52
2023-02-07T22:14:45.662Z,27.17
2023-02-07T22:17:12.630Z,21.38
2023-02-07T22:19:39.579Z,30.40
2023-02-07T22:22:06.599Z,20.88
2023-02-07T22:24:35.724Z,19.75
2023-02-07T22:27:04.769Z,25.95
2023-02-07T22:29:31.707Z,23.90
2023-02-07T22:32:00.812Z,28.00
2023-02-07T22:34:27.819Z,25.45
2023-02-07T22:36:57.236Z,21.98
2023-02-07T22:39:24.224Z,27.00
2023-02-07T22:41:56.085Z,27.05
2023-02-07T22:44:30.380Z,20.58
2023-02-07T22:46:59.498Z,19.25
2023-02-07T22:49:26.486Z,20.58
2023-02-07T22:51:53.423Z,24.92
2023-02-07T22:54:22.630Z,28.13
2023-02-07T22:56:54.127Z,23.38
2023-02-07T22:59:21.116Z,22.70
2023-02-07T23:01:48.073Z,28.88
2023-02-07T23:04:20.014Z,18.75
2023-02-07T23:06:47.049Z,20.85
2023-02-07T23:09:16.783Z,21.83
2023-02-07T23:11:45.828Z,25.48
2023-02-07T23:14:17.837Z,21.83
2023-02-07T23:16:47.144Z,25.48
2023-02-07T23:19:16.012Z,17.73
2023-02-07T23:21:43.502Z,22.67
2023-02-07T23:24:15.750Z,23.88
2023-02-07T23:26:50.367Z,18.77
2023-02-07T23:29:17.273Z,18.83
2023-02-07T23:31:44.343Z,21.02
2023-02-07T23:34:13.716Z,22.13
2023-02-07T23:36:40.675Z,17.58
2023-02-07T23:39:12.600Z,24.55
2023-02-07T23:41:42.062Z,27.58
2023-02-07T23:44:09.035Z,23.58
2023-02-07T23:46:38.550Z,16.65
2023-02-07T23:49:12.566Z,18.75
2023-02-07T23:51:42.004Z,28.40
2023-02-07T23:54:08.976Z,17.13
2023-02-07T23:56:38.268Z,23.50
2023-02-07T23:59:08.173Z,25.95
